Terminal Aerodrome Forecast
Issued by NWS

Home | Current Version | Previous Version | Text Only | Print | Product List | Glossary On
Versions: 1 2 3 4 5 6 7 8 9 10 11 12 13 14 15 16 17 18 19 20 21
308
FTUS45 KRIW 222321
TAFJAC
TAF
KJAC 222321Z 2300/2324 20010KT P6SM VCSH OVC035
     FM230400 VRB05KT P6SM SCT030 BKN050
     FM230600 VRB05KT P6SM VCFG FEW005 SCT050
      AMD LTD TO CLD VIS AND WIND=

USA.gov is the U.S. government's official web portal to all federal, state and local government web resources and services.